createdAt,value
2023-03-16T00:01:10.371Z,22.08
2023-03-16T00:03:57.900Z,22.20
2023-03-16T00:06:45.491Z,19.25
2023-03-16T00:09:34.488Z,20.10
2023-03-16T00:12:22.774Z,16.75
2023-03-16T00:15:11.080Z,16.63
2023-03-16T00:17:58.483Z,16.48
2023-03-16T00:20:46.175Z,17.42
2023-03-16T00:23:35.722Z,16.17
2023-03-16T00:26:25.901Z,14.43
2023-03-16T00:29:13.590Z,14.70
2023-03-16T00:32:01.552Z,14.43
2023-03-16T00:34:49.566Z,13.82
2023-03-16T00:37:37.879Z,14.70
2023-03-16T00:40:26.075Z,13.73
2023-03-16T00:43:18.734Z,16.00
2023-03-16T00:46:06.968Z,20.27
2023-03-16T00:48:54.839Z,22.40
2023-03-16T00:51:46.316Z,24.20
2023-03-16T00:54:34.330Z,24.20
2023-03-16T00:57:24.816Z,23.02
2023-03-16T01:00:17.154Z,19.52
2023-03-16T01:03:05.726Z,18.65
2023-03-16T01:05:53.218Z,19.35
2023-03-16T01:08:41.979Z,18.52
2023-03-16T01:11:29.895Z,17.30
2023-03-16T01:14:17.343Z,16.58
2023-03-16T01:17:08.680Z,15.90
2023-03-16T01:19:56.528Z,16.52
2023-03-16T01:22:44.371Z,15.88
2023-03-16T01:25:32.541Z,17.27
2023-03-16T01:28:20.991Z,15.40
2023-03-16T01:31:10.950Z,15.27
2023-03-16T01:34:01.225Z,15.98
2023-03-16T01:36:52.054Z,15.63
2023-03-16T01:40:07.643Z,14.95
2023-03-16T01:43:03.033Z,14.85
2023-03-16T01:46:25.325Z,13.52
2023-03-16T01:49:23.183Z,14.50
2023-03-16T01:52:15.385Z,13.63
2023-03-16T01:55:07.970Z,14.57
2023-03-16T01:57:56.982Z,12.90
2023-03-16T02:00:45.802Z,13.13
2023-03-16T02:03:42.641Z,11.98
2023-03-16T02:06:40.912Z,13.27
2023-03-16T02:09:30.490Z,12.88
2023-03-16T02:12:19.896Z,12.20
2023-03-16T02:15:13.995Z,12.50
2023-03-16T02:18:01.706Z,11.98
2023-03-16T02:20:56.589Z,11.93
2023-03-16T02:23:46.497Z,10.93
2023-03-16T02:26:44.971Z,12.77
2023-03-16T02:30:09.900Z,10.90
2023-03-16T02:33:14.636Z,11.20
2023-03-16T02:36:04.525Z,10.25
2023-03-16T02:38:52.042Z,11.05
2023-03-16T02:41:41.861Z,11.10
2023-03-16T02:44:34.364Z,11.93
2023-03-16T02:47:34.417Z,11.77
2023-03-16T02:50:22.066Z,10.75
2023-03-16T02:53:09.726Z,13.50
2023-03-16T02:55:57.370Z,12.02
2023-03-16T02:58:44.948Z,13.25
2023-03-16T03:01:38.244Z,11.98
2023-03-16T03:04:27.504Z,12.40
2023-03-16T03:07:15.142Z,12.02
2023-03-16T03:10:25.202Z,10.95
2023-03-16T03:13:12.820Z,11.70
2023-03-16T03:16:01.874Z,9.07
2023-03-16T03:18:49.668Z,10.88
2023-03-16T03:21:38.837Z,10.30
2023-03-16T03:24:28.346Z,9.15
2023-03-16T03:27:15.660Z,8.82
2023-03-16T03:30:03.870Z,8.73
2023-03-16T03:32:53.483Z,8.93
2023-03-16T03:35:43.473Z,8.90
2023-03-16T03:38:33.019Z,10.07
2023-03-16T03:41:23.073Z,9.23
2023-03-16T03:44:12.922Z,9.60
2023-03-16T03:47:00.371Z,9.48
2023-03-16T03:49:48.499Z,9.27
2023-03-16T03:52:36.444Z,10.07
2023-03-16T03:55:25.394Z,9.88
2023-03-16T03:58:13.268Z,8.52
2023-03-16T04:01:01.641Z,9.60
2023-03-16T04:03:50.736Z,9.55
2023-03-16T04:06:39.157Z,8.15
2023-03-16T04:09:26.907Z,8.80
2023-03-16T04:12:16.187Z,10.63
2023-03-16T04:15:05.194Z,9.85
2023-03-16T04:18:00.053Z,8.57
2023-03-16T04:20:48.423Z,8.77
2023-03-16T04:23:39.832Z,9.02
2023-03-16T04:26:27.945Z,9.05
2023-03-16T04:29:18.973Z,9.77
2023-03-16T04:32:07.844Z,9.35
2023-03-16T04:34:56.643Z,11.90
2023-03-16T04:37:52.394Z,10.40
2023-03-16T04:40:43.975Z,10.55
2023-03-16T04:43:35.973Z,9.23
2023-03-16T04:46:31.840Z,9.32
2023-03-16T04:49:23.306Z,10.63
2023-03-16T04:52:11.673Z,10.38
2023-03-16T04:55:00.007Z,11.15
2023-03-16T04:57:47.612Z,10.55
2023-03-16T05:00:35.693Z,9.73
2023-03-16T05:03:29.061Z,10.90
2023-03-16T05:06:17.380Z,11.23
2023-03-16T05:09:06.202Z,9.52
2023-03-16T05:11:56.475Z,9.52
2023-03-16T05:14:44.083Z,9.57
2023-03-16T05:17:43.050Z,10.45
2023-03-16T05:20:34.952Z,10.40
2023-03-16T05:23:25.253Z,9.85
2023-03-16T05:26:18.345Z,11.00
2023-03-16T05:29:07.201Z,8.35
2023-03-16T05:31:55.086Z,9.52
2023-03-16T05:34:45.734Z,9.13
2023-03-16T05:37:38.324Z,9.00
2023-03-16T05:40:28.365Z,8.63
2023-03-16T05:43:26.291Z,7.88
2023-03-16T05:46:15.735Z,8.20
2023-03-16T05:49:03.904Z,8.02
2023-03-16T05:51:51.868Z,9.07
2023-03-16T05:54:41.207Z,8.55
2023-03-16T05:57:30.827Z,8.15
2023-03-16T06:00:21.631Z,8.50
2023-03-16T06:03:18.106Z,10.30
2023-03-16T06:06:06.166Z,8.30
2023-03-16T06:09:09.838Z,7.85
2023-03-16T06:11:59.066Z,8.50
2023-03-16T06:14:46.628Z,8.93
2023-03-16T06:17:35.204Z,9.13
2023-03-16T06:20:23.312Z,7.82
2023-03-16T06:23:11.388Z,9.23
2023-03-16T06:25:59.769Z,9.40
2023-03-16T06:28:51.302Z,9.10
2023-03-16T06:31:39.396Z,8.88
2023-03-16T06:34:27.883Z,9.38
2023-03-16T06:37:19.444Z,9.88
2023-03-16T06:40:09.852Z,8.95
2023-03-16T06:42:57.975Z,8.93
2023-03-16T06:45:47.154Z,7.47
2023-03-16T06:48:34.994Z,8.65
2023-03-16T06:51:23.922Z,8.40
2023-03-16T06:54:12.942Z,8.52
2023-03-16T06:57:01.758Z,8.38
2023-03-16T06:59:49.222Z,9.05
2023-03-16T07:02:39.642Z,8.55
2023-03-16T07:05:29.356Z,8.32
2023-03-16T07:08:18.479Z,8.80
2023-03-16T07:11:06.424Z,9.18
2023-03-16T07:13:53.822Z,8.90
2023-03-16T07:16:43.051Z,8.15
2023-03-16T07:19:32.322Z,7.80
2023-03-16T07:22:23.203Z,6.82
2023-03-16T07:25:12.240Z,6.60
2023-03-16T07:28:04.292Z,6.18
2023-03-16T07:31:03.731Z,5.88
2023-03-16T07:33:57.602Z,6.00
2023-03-16T07:37:02.002Z,5.07
2023-03-16T07:39:52.774Z,5.18
2023-03-16T07:42:41.712Z,5.05
2023-03-16T07:45:36.981Z,5.67
2023-03-16T07:48:26.123Z,4.18
2023-03-16T07:51:21.478Z,4.85
2023-03-16T07:54:11.874Z,4.07
2023-03-16T07:56:59.723Z,4.53
2023-03-16T07:59:56.100Z,4.15
2023-03-16T08:02:43.695Z,4.95
2023-03-16T08:05:33.770Z,4.70
2023-03-16T08:08:25.904Z,4.28
2023-03-16T08:11:14.774Z,4.90
2023-03-16T08:14:09.543Z,5.22
2023-03-16T08:17:15.518Z,4.40
2023-03-16T08:20:08.196Z,4.30
2023-03-16T08:22:56.612Z,4.30
2023-03-16T08:25:48.008Z,4.43
2023-03-16T08:28:40.088Z,5.32
2023-03-16T08:31:35.315Z,4.18
2023-03-16T08:34:46.540Z,4.93
2023-03-16T08:37:34.594Z,4.00
2023-03-16T08:40:22.710Z,3.83
2023-03-16T08:43:11.037Z,4.18
2023-03-16T08:46:01.817Z,4.43
2023-03-16T08:48:59.099Z,3.63
2023-03-16T08:51:47.270Z,3.88
2023-03-16T08:54:34.995Z,4.03
2023-03-16T08:57:22.725Z,3.30
2023-03-16T09:00:13.484Z,3.67
2023-03-16T09:03:03.304Z,3.22
2023-03-16T09:05:51.349Z,3.38
2023-03-16T09:08:40.371Z,2.70
2023-03-16T09:11:30.768Z,2.78
2023-03-16T09:14:18.933Z,3.05
2023-03-16T09:17:07.664Z,2.50
2023-03-16T09:20:05.576Z,2.58
2023-03-16T09:22:59.304Z,1.80
2023-03-16T09:25:46.847Z,2.25
2023-03-16T09:28:36.041Z,2.42
2023-03-16T09:31:23.977Z,1.55
2023-03-16T09:34:11.809Z,1.83
2023-03-16T09:37:01.403Z,1.48
2023-03-16T09:39:48.670Z,1.60
2023-03-16T09:42:39.470Z,1.60
2023-03-16T09:45:36.823Z,1.48
2023-03-16T09:48:25.260Z,1.38
2023-03-16T09:51:21.728Z,1.35
2023-03-16T09:54:19.398Z,1.88
2023-03-16T09:57:16.066Z,2.05
2023-03-16T10:00:16.047Z,1.60
2023-03-16T10:03:22.534Z,1.70
2023-03-16T10:06:13.786Z,2.10
2023-03-16T10:09:10.414Z,1.77
2023-03-16T10:12:02.455Z,1.73
2023-03-16T10:14:56.718Z,1.95
2023-03-16T10:17:47.859Z,2.17
2023-03-16T10:20:36.738Z,1.52
2023-03-16T10:23:26.912Z,2.20
2023-03-16T10:26:18.838Z,2.03
2023-03-16T10:29:14.616Z,2.22
2023-03-16T10:32:09.760Z,1.95
2023-03-16T10:35:02.336Z,2.05
2023-03-16T10:37:50.278Z,2.53
2023-03-16T10:40:39.608Z,2.17
2023-03-16T10:43:27.269Z,2.53
2023-03-16T10:46:16.729Z,1.92
2023-03-16T10:49:04.300Z,1.88
2023-03-16T10:51:52.258Z,2.10
2023-03-16T10:54:42.048Z,1.70
2023-03-16T10:57:34.503Z,1.92
2023-03-16T11:00:24.512Z,1.60
2023-03-16T11:03:25.430Z,2.13
2023-03-16T11:06:22.865Z,1.73
2023-03-16T11:09:21.805Z,2.60
2023-03-16T11:12:21.650Z,2.47
2023-03-16T11:15:25.075Z,1.77
2023-03-16T11:18:25.154Z,1.60
2023-03-16T11:21:18.282Z,2.03
2023-03-16T11:24:07.391Z,1.50
2023-03-16T11:26:57.157Z,1.90
2023-03-16T11:29:56.240Z,1.55
2023-03-16T11:32:48.642Z,1.80
2023-03-16T11:35:58.447Z,1.67
2023-03-16T11:38:55.139Z,1.40
2023-03-16T11:44:43.665Z,1.40
2023-03-16T11:47:58.661Z,1.58
2023-03-16T11:51:00.607Z,1.35
2023-03-16T11:53:52.071Z,1.30
2023-03-16T11:56:45.062Z,1.88
2023-03-16T12:00:01.537Z,1.42
2023-03-16T12:03:13.647Z,1.80
2023-03-16T12:06:16.942Z,1.48
2023-03-16T12:09:40.527Z,2.08
2023-03-16T12:12:42.759Z,1.30
2023-03-16T12:15:40.378Z,1.73
2023-03-16T12:18:37.609Z,1.08
2023-03-16T12:21:32.563Z,1.48
2023-03-16T12:24:24.429Z,0.95
2023-03-16T12:27:17.657Z,1.33
2023-03-16T12:30:18.711Z,1.27
2023-03-16T12:33:16.137Z,1.40
2023-03-16T12:36:12.499Z,1.13
2023-03-16T12:39:06.514Z,1.35
2023-03-16T12:42:04.716Z,1.30
2023-03-16T12:44:57.269Z,1.40
2023-03-16T12:47:54.522Z,1.20
2023-03-16T12:50:51.387Z,1.55
2023-03-16T12:53:44.623Z,1.38
2023-03-16T12:56:35.903Z,1.48
2023-03-16T12:59:25.457Z,1.15
2023-03-16T13:02:17.732Z,1.88
2023-03-16T13:05:11.837Z,1.00
2023-03-16T13:08:08.984Z,1.00
2023-03-16T13:13:54.647Z,1.30
2023-03-16T13:16:43.872Z,1.65
2023-03-16T13:19:32.701Z,1.42
2023-03-16T13:22:27.973Z,1.25
2023-03-16T13:25:22.478Z,1.35
2023-03-16T13:28:14.491Z,0.90
2023-03-16T13:31:04.882Z,1.40
2023-03-16T13:33:55.659Z,1.70
2023-03-16T13:36:46.206Z,1.08
2023-03-16T13:39:35.395Z,1.40
2023-03-16T13:42:23.879Z,1.08
2023-03-16T13:45:15.950Z,1.15
2023-03-16T13:48:05.587Z,1.05
2023-03-16T13:50:53.340Z,1.90
2023-03-16T13:53:42.728Z,1.40
2023-03-16T13:56:31.978Z,0.95
2023-03-16T13:59:26.604Z,0.98
2023-03-16T14:02:20.833Z,1.63
2023-03-16T14:05:18.626Z,1.38
2023-03-16T14:08:17.019Z,0.98
2023-03-16T14:11:04.975Z,1.52
2023-03-16T14:13:54.718Z,1.33
2023-03-16T14:16:42.475Z,1.25
2023-03-16T14:19:36.041Z,1.30
2023-03-16T14:22:33.928Z,1.23
2023-03-16T14:25:24.188Z,1.13
2023-03-16T14:28:16.696Z,1.20
2023-03-16T14:31:06.138Z,1.02
2023-03-16T14:34:01.968Z,1.67
2023-03-16T14:36:49.050Z,1.48
2023-03-16T14:39:37.825Z,1.10
2023-03-16T14:42:28.961Z,1.00
2023-03-16T14:45:17.530Z,1.15
2023-03-16T14:48:09.726Z,1.00
2023-03-16T14:51:00.355Z,1.25
2023-03-16T14:53:47.746Z,1.08
2023-03-16T14:56:36.826Z,0.88
2023-03-16T14:59:24.056Z,1.48
2023-03-16T15:02:18.945Z,1.27
2023-03-16T15:05:06.707Z,1.48
2023-03-16T15:07:56.217Z,1.40
2023-03-16T15:10:44.436Z,0.98
2023-03-16T15:13:52.649Z,0.98
2023-03-16T15:16:39.802Z,1.05
2023-03-16T15:19:26.957Z,1.35
2023-03-16T15:22:14.948Z,1.20
2023-03-16T15:25:19.476Z,1.50
2023-03-16T15:28:14.482Z,1.10
2023-03-16T15:31:04.521Z,1.45
2023-03-16T15:33:52.040Z,1.42
2023-03-16T15:36:39.336Z,1.35
2023-03-16T15:39:26.741Z,1.35
2023-03-16T15:42:16.602Z,2.13
2023-03-16T15:45:03.753Z,1.60
2023-03-16T15:47:54.377Z,1.40
2023-03-16T15:50:45.199Z,1.45
2023-03-16T15:53:36.544Z,1.13
2023-03-16T15:56:29.782Z,1.27
2023-03-16T15:59:18.037Z,1.38
2023-03-16T16:02:24.251Z,1.50
2023-03-16T16:05:12.956Z,1.55
2023-03-16T16:08:00.610Z,1.10
2023-03-16T16:10:49.613Z,1.17
2023-03-16T16:13:44.713Z,1.17
2023-03-16T16:16:33.827Z,1.30
2023-03-16T16:19:21.626Z,1.30
2023-03-16T16:22:12.955Z,1.08
2023-03-16T16:25:00.036Z,1.13
2023-03-16T16:27:47.944Z,0.90
2023-03-16T16:30:36.103Z,0.82
2023-03-16T16:33:26.099Z,1.42
2023-03-16T16:36:17.746Z,1.27
2023-03-16T16:39:06.379Z,1.17
2023-03-16T16:41:56.518Z,1.20
2023-03-16T16:44:44.731Z,0.85
2023-03-16T16:47:32.020Z,1.00
2023-03-16T16:50:22.582Z,1.15
2023-03-16T16:53:21.356Z,1.02
2023-03-16T16:56:14.472Z,1.30
2023-03-16T16:59:12.489Z,1.10
2023-03-16T17:02:01.259Z,9.23
2023-03-16T17:04:50.827Z,5.35
2023-03-16T17:07:39.131Z,4.88
2023-03-16T17:10:27.902Z,5.43
2023-03-16T17:13:29.756Z,4.30
2023-03-16T17:16:18.368Z,4.35
2023-03-16T17:19:07.503Z,4.35
2023-03-16T17:21:57.190Z,4.60
2023-03-16T17:24:44.589Z,4.32
2023-03-16T17:27:33.134Z,5.95
2023-03-16T17:30:25.370Z,9.80
2023-03-16T17:33:15.075Z,11.15
2023-03-16T17:36:03.198Z,12.48
2023-03-16T17:38:50.668Z,13.10
2023-03-16T17:41:38.006Z,14.55
2023-03-16T17:44:26.843Z,21.33
2023-03-16T17:47:19.180Z,20.42
2023-03-16T17:50:17.964Z,19.88
2023-03-16T17:53:05.851Z,23.92
2023-03-16T17:55:53.611Z,20.02
2023-03-16T17:58:43.108Z,17.23
2023-03-16T18:01:33.803Z,18.33
2023-03-16T18:04:24.748Z,15.55
2023-03-16T18:07:14.910Z,13.95
2023-03-16T18:10:02.168Z,10.85
2023-03-16T18:12:54.399Z,10.25
2023-03-16T18:15:41.840Z,8.45
2023-03-16T18:18:31.602Z,7.10
2023-03-16T18:21:23.137Z,6.05
2023-03-16T18:24:15.841Z,4.53
2023-03-16T18:27:03.461Z,4.57
2023-03-16T18:29:50.808Z,4.22
2023-03-16T18:32:38.511Z,5.13
2023-03-16T18:35:27.355Z,4.70
2023-03-16T18:38:20.463Z,6.78
2023-03-16T18:41:16.945Z,8.27
2023-03-16T18:47:02.320Z,9.77
2023-03-16T18:49:53.442Z,10.13
2023-03-16T18:52:41.678Z,13.15
2023-03-16T18:55:30.982Z,15.82
2023-03-16T18:58:22.809Z,18.45
2023-03-16T19:01:20.192Z,17.05
2023-03-16T19:04:08.312Z,14.75
2023-03-16T19:06:57.151Z,15.30
2023-03-16T19:09:44.908Z,14.07
2023-03-16T19:12:33.598Z,18.23
2023-03-16T19:15:24.099Z,18.67
2023-03-16T19:18:11.802Z,17.95
2023-03-16T19:20:59.394Z,19.98
2023-03-16T19:23:52.921Z,25.88
2023-03-16T19:26:40.230Z,29.80
2023-03-16T19:29:32.875Z,27.02
2023-03-16T19:32:21.254Z,26.63
2023-03-16T19:35:16.755Z,31.55
2023-03-16T19:38:04.501Z,36.37
2023-03-16T19:40:55.934Z,32.85
2023-03-16T19:43:43.604Z,33.03
2023-03-16T19:46:32.299Z,36.25
2023-03-16T19:49:21.805Z,43.15
2023-03-16T19:52:12.139Z,45.60
2023-03-16T19:54:59.346Z,41.35
2023-03-16T19:57:49.209Z,44.83
2023-03-16T20:00:36.568Z,44.72
2023-03-16T20:03:25.611Z,41.45
2023-03-16T20:06:15.216Z,38.13
2023-03-16T20:09:02.785Z,36.58
2023-03-16T20:11:50.776Z,35.30
2023-03-16T20:14:38.335Z,41.65
2023-03-16T20:17:28.325Z,40.55
2023-03-16T20:20:26.139Z,36.47
2023-03-16T20:23:23.583Z,32.88
2023-03-16T20:26:17.507Z,31.58
2023-03-16T20:29:04.950Z,31.00
2023-03-16T20:31:52.307Z,28.15
2023-03-16T20:34:39.737Z,25.42
2023-03-16T20:37:31.236Z,23.40
2023-03-16T20:40:18.692Z,21.42
2023-03-16T20:43:15.221Z,23.27
2023-03-16T20:46:03.907Z,22.73
2023-03-16T20:48:51.303Z,26.48
2023-03-16T20:51:38.823Z,22.85
2023-03-16T20:54:27.407Z,25.67
2023-03-16T20:57:17.556Z,28.02
2023-03-16T21:00:19.391Z,31.80
2023-03-16T21:03:15.582Z,30.70
2023-03-16T21:06:02.659Z,27.98
2023-03-16T21:08:51.180Z,28.75
2023-03-16T21:11:40.235Z,28.77
2023-03-16T21:14:27.870Z,29.85
2023-03-16T21:17:24.633Z,27.60
2023-03-16T21:20:18.987Z,28.42
2023-03-16T21:23:12.616Z,27.25
2023-03-16T21:26:03.738Z,27.65
2023-03-16T21:28:56.576Z,28.48
2023-03-16T21:31:44.468Z,26.73
2023-03-16T21:34:36.456Z,22.42
2023-03-16T21:37:25.173Z,22.00
2023-03-16T21:40:21.356Z,21.13
2023-03-16T21:43:11.720Z,18.08
2023-03-16T21:46:01.429Z,17.70
2023-03-16T21:48:50.645Z,18.77
2023-03-16T21:51:37.995Z,16.85
2023-03-16T21:54:25.564Z,16.88
2023-03-16T21:57:15.585Z,16.63
2023-03-16T22:00:03.114Z,17.13
2023-03-16T22:02:57.857Z,18.48
2023-03-16T22:05:45.887Z,19.73
2023-03-16T22:08:35.353Z,19.40
2023-03-16T22:11:24.496Z,19.13
2023-03-16T22:14:11.686Z,19.67
2023-03-16T22:16:59.151Z,18.10
2023-03-16T22:19:48.233Z,19.15
2023-03-16T22:22:35.755Z,18.60
2023-03-16T22:25:25.215Z,20.88
2023-03-16T22:28:14.171Z,20.52
2023-03-16T22:31:03.639Z,19.42
2023-03-16T22:33:51.504Z,19.73
2023-03-16T22:36:40.044Z,22.20
2023-03-16T22:39:27.880Z,20.83
2023-03-16T22:42:26.372Z,23.38
2023-03-16T22:45:19.760Z,21.80
2023-03-16T22:48:18.793Z,21.52
2023-03-16T22:51:07.001Z,21.17
2023-03-16T22:53:59.646Z,21.90
2023-03-16T22:56:48.994Z,22.40
2023-03-16T22:59:36.575Z,21.63
2023-03-16T23:02:27.438Z,22.23
2023-03-16T23:05:25.674Z,20.65
2023-03-16T23:08:15.629Z,24.15
2023-03-16T23:11:04.267Z,24.67
2023-03-16T23:13:53.494Z,24.00
2023-03-16T23:16:41.740Z,23.73
2023-03-16T23:19:32.789Z,23.58
2023-03-16T23:22:20.246Z,25.20
2023-03-16T23:25:08.210Z,24.05
2023-03-16T23:27:58.169Z,23.77
2023-03-16T23:30:45.553Z,23.08
2023-03-16T23:33:32.803Z,24.85
2023-03-16T23:36:22.242Z,24.65
2023-03-16T23:39:10.501Z,23.98
2023-03-16T23:41:57.731Z,23.48
2023-03-16T23:44:46.816Z,24.10
2023-03-16T23:47:34.246Z,24.63
2023-03-16T23:50:26.808Z,25.67
2023-03-16T23:53:16.564Z,27.42
2023-03-16T23:56:03.788Z,28.15
2023-03-16T23:58:51.584Z,26.67
